createdAt,value
2022-12-28T00:01:21.806Z,88.30
2022-12-28T00:03:52.625Z,88.50
2022-12-28T00:06:25.046Z,88.50
2022-12-28T00:08:59.335Z,88.50
2022-12-28T00:11:30.886Z,88.20
2022-12-28T00:14:03.127Z,88.30
2022-12-28T00:16:38.604Z,88.50
2022-12-28T00:19:13.376Z,88.60
2022-12-28T00:21:43.788Z,88.50
2022-12-28T00:24:24.736Z,88.50
2022-12-28T00:26:55.078Z,88.60
2022-12-28T00:29:24.875Z,89.00
2022-12-28T00:31:54.462Z,88.80
2022-12-28T00:34:24.155Z,88.90
2022-12-28T00:37:10.862Z,89.00
2022-12-28T00:39:43.776Z,89.20
2022-12-28T00:42:13.583Z,89.30
2022-12-28T00:44:43.261Z,89.20
2022-12-28T00:47:12.894Z,89.20
2022-12-28T00:49:42.503Z,89.20
2022-12-28T00:52:12.109Z,89.30
2022-12-28T00:54:41.837Z,89.20
2022-12-28T00:57:11.402Z,89.20
2022-12-28T00:59:40.994Z,89.30
2022-12-28T01:02:10.779Z,89.10
2022-12-28T01:04:41.063Z,89.20
2022-12-28T01:07:10.912Z,89.20
2022-12-28T01:09:40.520Z,89.40
2022-12-28T01:12:10.055Z,89.30
2022-12-28T01:14:39.634Z,89.40
2022-12-28T01:17:09.247Z,89.30
2022-12-28T01:19:38.777Z,89.10
2022-12-28T01:22:08.293Z,89.10
2022-12-28T01:24:37.879Z,89.00
2022-12-28T01:27:07.572Z,89.00
2022-12-28T01:29:37.104Z,88.90
2022-12-28T01:32:06.986Z,89.00
2022-12-28T01:34:36.472Z,88.80
2022-12-28T01:37:06.084Z,88.80
2022-12-28T01:39:35.655Z,88.90
2022-12-28T01:42:05.367Z,88.80
2022-12-28T01:44:46.259Z,88.90
2022-12-28T01:47:20.159Z,89.00
2022-12-28T01:50:00.333Z,89.00
2022-12-28T01:52:46.552Z,88.50
2022-12-28T01:55:26.748Z,89.40
2022-12-28T01:58:20.835Z,88.80
2022-12-28T02:00:50.688Z,88.50
2022-12-28T02:03:28.179Z,88.40
2022-12-28T02:06:02.142Z,88.50
2022-12-28T02:08:53.601Z,88.10
2022-12-28T02:11:23.793Z,88.60
2022-12-28T02:13:54.746Z,87.50
2022-12-28T02:16:24.547Z,87.40
2022-12-28T02:18:54.728Z,87.20
2022-12-28T02:22:03.458Z,87.00
2022-12-28T02:25:12.646Z,86.70
2022-12-28T02:28:15.683Z,85.90
2022-12-28T02:31:03.560Z,85.10
2022-12-28T02:33:50.447Z,84.90
2022-12-28T02:36:26.648Z,84.60
2022-12-28T02:39:08.964Z,84.20
2022-12-28T02:41:42.149Z,84.00
2022-12-28T02:44:12.321Z,83.70
2022-12-28T02:47:01.711Z,83.50
2022-12-28T02:49:50.944Z,83.30
2022-12-28T02:52:59.646Z,82.70
2022-12-28T02:56:16.178Z,82.20
2022-12-28T02:59:14.146Z,81.90
2022-12-28T03:02:23.089Z,81.70
2022-12-28T03:05:10.549Z,81.60
2022-12-28T03:08:23.880Z,81.30
2022-12-28T03:11:04.398Z,81.00
2022-12-28T03:14:13.175Z,79.80
2022-12-28T03:17:05.318Z,79.10
2022-12-28T03:19:59.310Z,79.00
2022-12-28T03:22:51.460Z,77.90
2022-12-28T03:25:43.654Z,77.20
2022-12-28T03:28:36.543Z,76.00
2022-12-28T03:31:11.569Z,75.30
2022-12-28T03:33:48.933Z,76.10
2022-12-28T03:36:35.423Z,76.10
2022-12-28T03:39:26.643Z,76.20
2022-12-28T03:42:54.992Z,73.50
2022-12-28T03:45:45.412Z,73.60
2022-12-28T03:48:17.558Z,74.00
2022-12-28T03:50:50.623Z,73.70
2022-12-28T03:53:25.179Z,73.70
2022-12-28T03:55:54.864Z,73.70
2022-12-28T03:58:24.691Z,73.60
2022-12-28T04:00:54.236Z,72.80
2022-12-28T04:03:23.885Z,72.70
2022-12-28T04:05:53.614Z,72.60
2022-12-28T04:08:23.721Z,72.00
2022-12-28T04:10:53.297Z,71.80
2022-12-28T04:13:23.131Z,70.60
2022-12-28T04:16:08.926Z,70.00
2022-12-28T04:18:38.493Z,69.40
2022-12-28T04:21:08.406Z,69.90
2022-12-28T04:23:38.114Z,69.60
2022-12-28T04:26:11.458Z,69.10
2022-12-28T04:28:41.376Z,69.00
2022-12-28T04:31:13.766Z,69.20
2022-12-28T04:33:43.494Z,68.60
2022-12-28T04:36:18.796Z,68.70
2022-12-28T04:38:48.391Z,69.10
2022-12-28T04:41:17.919Z,69.00
2022-12-28T04:43:47.484Z,67.70
2022-12-28T04:46:18.662Z,67.90
2022-12-28T04:48:48.214Z,67.70
2022-12-28T04:51:26.473Z,67.40
2022-12-28T04:53:57.190Z,65.40
2022-12-28T04:56:28.303Z,65.30
2022-12-28T04:59:00.682Z,65.40
2022-12-28T05:01:30.443Z,65.10
2022-12-28T05:04:00.401Z,64.70
2022-12-28T05:06:30.995Z,65.10
2022-12-28T05:09:01.270Z,65.10
2022-12-28T05:11:32.053Z,65.20
2022-12-28T05:14:02.010Z,65.00
2022-12-28T05:16:32.383Z,64.00
2022-12-28T05:19:01.998Z,63.50
2022-12-28T05:21:31.660Z,63.20
2022-12-28T05:24:01.925Z,63.20
2022-12-28T05:26:32.221Z,62.80
2022-12-28T05:29:02.367Z,63.10
2022-12-28T05:31:32.036Z,62.90
2022-12-28T05:34:01.886Z,62.90
2022-12-28T05:36:31.595Z,63.00
2022-12-28T05:39:01.280Z,62.70
2022-12-28T05:41:32.084Z,62.90
2022-12-28T05:44:02.434Z,63.10
2022-12-28T05:46:34.559Z,63.10
2022-12-28T05:49:04.558Z,62.70
2022-12-28T05:51:35.172Z,62.90
2022-12-28T05:54:08.722Z,62.40
2022-12-28T05:56:38.332Z,62.40
2022-12-28T05:59:09.666Z,61.80
2022-12-28T06:01:41.577Z,62.10
2022-12-28T06:04:21.809Z,62.10
2022-12-28T06:06:51.966Z,62.10
2022-12-28T06:09:22.647Z,61.70
2022-12-28T06:11:52.273Z,61.80
2022-12-28T06:14:22.226Z,61.80
2022-12-28T06:16:53.218Z,61.20
2022-12-28T06:19:22.858Z,61.70
2022-12-28T06:21:52.507Z,61.80
2022-12-28T06:24:22.181Z,61.80
2022-12-28T06:26:51.846Z,61.80
2022-12-28T06:29:21.348Z,61.90
2022-12-28T06:31:52.906Z,61.80
2022-12-28T06:34:22.579Z,60.80
2022-12-28T06:36:54.401Z,59.60
2022-12-28T06:39:23.902Z,57.60
2022-12-28T06:41:53.503Z,58.10
2022-12-28T06:44:23.049Z,59.00
2022-12-28T06:46:52.524Z,59.10
2022-12-28T06:49:22.046Z,59.30
2022-12-28T06:51:51.703Z,59.20
2022-12-28T06:54:21.283Z,59.40
2022-12-28T06:56:50.804Z,59.40
2022-12-28T06:59:20.433Z,59.30
2022-12-28T07:01:50.124Z,59.30
2022-12-28T07:04:19.804Z,59.20
2022-12-28T07:06:49.421Z,59.40
2022-12-28T07:09:19.310Z,59.20
2022-12-28T07:11:53.056Z,59.50
2022-12-28T07:14:22.665Z,59.30
2022-12-28T07:16:52.462Z,58.70
2022-12-28T07:19:22.183Z,58.50
2022-12-28T07:21:52.179Z,58.20
2022-12-28T07:24:21.873Z,58.60
2022-12-28T07:26:51.675Z,58.30
2022-12-28T07:29:21.234Z,58.30
2022-12-28T07:31:50.746Z,58.30
2022-12-28T07:34:20.282Z,58.10
2022-12-28T07:36:51.462Z,58.10
2022-12-28T07:39:20.969Z,58.30
2022-12-28T07:41:50.541Z,58.40
2022-12-28T07:44:20.067Z,58.10
2022-12-28T07:46:49.674Z,58.10
2022-12-28T07:49:19.188Z,57.90
2022-12-28T07:51:48.743Z,57.90
2022-12-28T07:54:18.352Z,57.90
2022-12-28T07:56:47.983Z,57.90
2022-12-28T07:59:17.616Z,57.70
2022-12-28T08:01:47.437Z,57.60
2022-12-28T08:04:18.750Z,57.20
2022-12-28T08:06:48.975Z,57.30
2022-12-28T08:09:18.595Z,57.20
2022-12-28T08:11:50.687Z,56.10
2022-12-28T08:14:20.921Z,56.60
2022-12-28T08:16:50.460Z,56.80
2022-12-28T08:19:20.341Z,56.70
2022-12-28T08:21:49.943Z,56.60
2022-12-28T08:24:21.671Z,56.70
2022-12-28T08:26:51.540Z,56.70
2022-12-28T08:29:23.573Z,56.90
2022-12-28T08:31:53.228Z,56.80
2022-12-28T08:34:28.712Z,57.00
2022-12-28T08:36:58.896Z,56.80
2022-12-28T08:39:28.366Z,56.20
2022-12-28T08:41:58.962Z,56.40
2022-12-28T08:44:29.072Z,56.40
2022-12-28T08:46:59.775Z,56.40
2022-12-28T08:49:29.429Z,56.20
2022-12-28T08:51:59.205Z,56.30
2022-12-28T08:54:28.700Z,56.10
2022-12-28T08:56:58.183Z,56.20
2022-12-28T08:59:27.834Z,56.90
2022-12-28T09:01:57.416Z,56.00
2022-12-28T09:04:27.175Z,55.70
2022-12-28T09:06:56.823Z,55.90
2022-12-28T09:09:26.339Z,55.90
2022-12-28T09:11:55.965Z,55.90
2022-12-28T09:14:26.266Z,55.60
2022-12-28T09:16:56.541Z,55.60
2022-12-28T09:19:26.497Z,55.60
2022-12-28T09:21:57.088Z,55.10
2022-12-28T09:24:26.707Z,55.50
2022-12-28T09:26:57.189Z,55.50
2022-12-28T09:29:26.769Z,55.20
2022-12-28T09:31:56.292Z,55.10
2022-12-28T09:34:36.238Z,55.20
2022-12-28T09:37:07.944Z,55.30
2022-12-28T09:39:37.639Z,55.40
2022-12-28T09:42:25.934Z,54.90
2022-12-28T09:45:05.893Z,54.90
2022-12-28T09:47:57.757Z,55.20
2022-12-28T09:50:36.992Z,55.20
2022-12-28T09:53:36.560Z,54.90
2022-12-28T09:56:28.980Z,54.90
2022-12-28T09:58:58.973Z,54.60
2022-12-28T10:01:29.540Z,55.00
2022-12-28T10:04:03.181Z,55.10
2022-12-28T10:06:37.051Z,55.00
2022-12-28T10:09:14.262Z,55.30
2022-12-28T10:11:45.692Z,55.20
2022-12-28T10:14:22.433Z,55.30
2022-12-28T10:16:52.663Z,55.40
2022-12-28T10:19:25.826Z,55.50
2022-12-28T10:22:14.832Z,55.50
2022-12-28T10:24:44.767Z,55.60
2022-12-28T10:27:26.681Z,55.70
2022-12-28T10:29:56.762Z,55.80
2022-12-28T10:32:26.549Z,55.80
2022-12-28T10:35:03.876Z,55.90
2022-12-28T10:37:36.853Z,56.00
2022-12-28T10:40:26.016Z,56.00
2022-12-28T10:42:57.781Z,56.20
2022-12-28T10:45:38.646Z,56.30
2022-12-28T10:48:21.366Z,56.50
2022-12-28T10:51:02.428Z,56.60
2022-12-28T10:53:44.703Z,56.70
2022-12-28T10:56:34.546Z,57.10
2022-12-28T10:59:29.444Z,57.30
2022-12-28T11:02:30.435Z,58.00
2022-12-28T11:05:03.691Z,57.60
2022-12-28T11:07:40.105Z,57.80
2022-12-28T11:10:30.862Z,57.90
2022-12-28T11:13:03.558Z,58.20
2022-12-28T11:15:35.171Z,58.70
2022-12-28T11:18:18.846Z,58.40
2022-12-28T11:20:54.044Z,58.60
2022-12-28T11:23:27.970Z,58.90
2022-12-28T11:25:57.538Z,59.10
2022-12-28T11:28:27.209Z,59.50
2022-12-28T11:30:58.952Z,59.80
2022-12-28T11:33:50.155Z,60.00
2022-12-28T11:36:26.880Z,60.50
2022-12-28T11:38:58.171Z,60.70
2022-12-28T11:42:10.384Z,61.10
2022-12-28T11:44:53.837Z,61.40
2022-12-28T11:47:34.729Z,61.90
2022-12-28T11:50:43.779Z,62.30
2022-12-28T11:53:52.619Z,62.80
2022-12-28T11:56:24.253Z,63.20
2022-12-28T11:59:08.474Z,63.50
2022-12-28T12:01:46.313Z,63.80
2022-12-28T12:04:22.138Z,64.20
2022-12-28T12:07:27.449Z,64.60
2022-12-28T12:10:30.124Z,65.40
2022-12-28T12:13:00.379Z,66.20
2022-12-28T12:15:42.540Z,66.50
2022-12-28T12:18:21.997Z,66.70
2022-12-28T12:21:04.283Z,66.90
2022-12-28T12:24:01.247Z,67.10
2022-12-28T12:26:41.699Z,67.00
2022-12-28T12:29:28.132Z,67.30
2022-12-28T12:32:20.726Z,67.80
2022-12-28T12:35:04.363Z,68.10
2022-12-28T12:37:46.643Z,68.30
2022-12-28T12:40:55.321Z,68.40
2022-12-28T12:44:04.050Z,68.60
2022-12-28T12:47:06.491Z,69.00
2022-12-28T12:50:15.234Z,69.00
2022-12-28T12:53:14.727Z,69.40
2022-12-28T12:56:23.494Z,69.70
2022-12-28T12:59:25.268Z,70.00
2022-12-28T13:02:22.573Z,70.50
2022-12-28T13:04:53.182Z,70.20
2022-12-28T13:07:28.964Z,70.70
2022-12-28T13:10:01.403Z,70.90
2022-12-28T13:12:31.273Z,70.90
2022-12-28T13:15:10.651Z,71.20
2022-12-28T13:17:42.235Z,71.20
2022-12-28T13:20:22.742Z,71.10
2022-12-28T13:22:52.447Z,71.30
2022-12-28T13:25:30.301Z,71.60
2022-12-28T13:28:05.254Z,71.80
2022-12-28T13:30:34.874Z,72.50
2022-12-28T13:33:04.984Z,72.50
2022-12-28T13:35:36.010Z,72.90
2022-12-28T13:38:15.063Z,73.20
2022-12-28T13:40:53.314Z,73.70
2022-12-28T13:44:02.033Z,74.00
2022-12-28T13:46:32.585Z,74.60
2022-12-28T13:49:03.411Z,75.30
2022-12-28T13:51:33.943Z,75.30
2022-12-28T13:54:04.089Z,75.40
2022-12-28T13:56:35.056Z,75.30
2022-12-28T13:59:10.754Z,75.20
2022-12-28T14:01:46.730Z,75.10
2022-12-28T14:07:19.068Z,75.50
2022-12-28T14:09:49.884Z,75.50
2022-12-28T14:12:20.524Z,75.50
2022-12-28T14:14:51.065Z,75.50
2022-12-28T14:17:21.670Z,75.50
2022-12-28T14:19:52.099Z,75.50
2022-12-28T14:22:37.839Z,75.80
2022-12-28T14:25:14.802Z,75.90
2022-12-28T14:27:57.378Z,76.20
2022-12-28T14:30:32.165Z,76.10
2022-12-28T14:36:06.377Z,76.30
2022-12-28T14:38:49.892Z,76.30
2022-12-28T14:41:38.512Z,76.60
2022-12-28T14:44:15.998Z,76.50
2022-12-28T14:46:47.356Z,76.80
2022-12-28T14:49:37.417Z,77.00
2022-12-28T14:52:43.682Z,77.00
2022-12-28T14:55:36.411Z,77.20
2022-12-28T14:58:16.632Z,77.10
2022-12-28T15:00:59.239Z,77.20
2022-12-28T15:03:30.929Z,77.40
2022-12-28T15:06:01.874Z,77.30
2022-12-28T15:08:31.523Z,77.60
2022-12-28T15:13:31.612Z,77.70
2022-12-28T15:16:03.777Z,77.80
2022-12-28T15:18:34.780Z,77.80
2022-12-28T15:21:08.084Z,78.10
2022-12-28T15:23:38.166Z,78.20
2022-12-28T15:26:15.539Z,78.20
2022-12-28T15:28:45.420Z,78.10
2022-12-28T15:31:17.283Z,78.50
2022-12-28T15:33:47.601Z,78.10
2022-12-28T15:36:20.001Z,78.30
2022-12-28T15:38:51.049Z,78.20
2022-12-28T15:41:40.597Z,78.10
2022-12-28T15:44:10.352Z,78.20
2022-12-28T15:46:41.546Z,78.30
2022-12-28T15:49:14.527Z,78.20
2022-12-28T15:51:44.664Z,78.20
2022-12-28T15:54:14.957Z,78.00
2022-12-28T15:56:45.087Z,78.10
2022-12-28T15:59:16.371Z,78.10
2022-12-28T16:01:47.814Z,78.20
2022-12-28T16:04:17.734Z,78.10
2022-12-28T16:06:47.556Z,78.20
2022-12-28T16:09:19.519Z,78.30
2022-12-28T16:11:54.661Z,78.10
2022-12-28T16:14:25.212Z,78.10
2022-12-28T16:16:54.754Z,78.30
2022-12-28T16:19:24.415Z,78.40
2022-12-28T16:21:54.310Z,78.50
2022-12-28T16:24:24.616Z,78.60
2022-12-28T16:26:54.193Z,78.60
2022-12-28T16:29:24.184Z,78.60
2022-12-28T16:31:54.560Z,78.80
2022-12-28T16:34:24.430Z,78.90
2022-12-28T16:36:58.517Z,78.90
2022-12-28T16:39:30.427Z,79.00
2022-12-28T16:42:00.500Z,78.90
2022-12-28T16:44:30.980Z,79.00
2022-12-28T16:47:01.247Z,79.10
2022-12-28T16:49:31.578Z,79.00
2022-12-28T16:52:01.196Z,79.20
2022-12-28T16:54:31.035Z,79.10
2022-12-28T16:57:00.631Z,79.30
2022-12-28T16:59:31.058Z,79.40
2022-12-28T17:02:01.084Z,79.30
2022-12-28T17:04:30.742Z,79.30
2022-12-28T17:07:01.194Z,79.50
2022-12-28T17:09:30.890Z,79.60
2022-12-28T17:12:00.452Z,79.80
2022-12-28T17:14:37.385Z,79.80
2022-12-28T17:17:09.165Z,79.70
2022-12-28T17:19:38.906Z,79.80
2022-12-28T17:22:08.452Z,79.70
2022-12-28T17:24:38.147Z,79.90
2022-12-28T17:27:11.800Z,79.90
2022-12-28T17:29:45.223Z,79.90
2022-12-28T17:32:14.813Z,80.10
2022-12-28T17:34:44.455Z,80.10
2022-12-28T17:37:14.094Z,80.00
2022-12-28T17:39:43.661Z,80.30
2022-12-28T17:42:13.460Z,80.40
2022-12-28T17:44:43.103Z,80.00
2022-12-28T17:47:12.610Z,79.90
2022-12-28T17:49:42.347Z,80.00
2022-12-28T17:52:12.085Z,80.30
2022-12-28T17:54:41.710Z,80.60
2022-12-28T17:57:11.578Z,80.90
2022-12-28T17:59:41.183Z,81.10
2022-12-28T18:02:14.255Z,80.90
2022-12-28T18:04:44.057Z,81.20
2022-12-28T18:07:13.619Z,81.40
2022-12-28T18:09:43.204Z,81.10
2022-12-28T18:12:12.865Z,81.30
2022-12-28T18:14:42.469Z,81.60
2022-12-28T18:17:12.079Z,81.60
2022-12-28T18:19:41.785Z,81.70
2022-12-28T18:22:11.294Z,81.70
2022-12-28T18:24:40.965Z,81.80
2022-12-28T18:27:10.599Z,81.80
2022-12-28T18:29:40.160Z,82.20
2022-12-28T18:32:09.939Z,82.20
2022-12-28T18:34:39.591Z,82.20
2022-12-28T18:37:09.255Z,82.10
2022-12-28T18:39:38.929Z,82.10
2022-12-28T18:42:08.535Z,82.00
2022-12-28T18:44:38.332Z,82.70
2022-12-28T18:47:08.240Z,82.70
2022-12-28T18:49:40.213Z,82.90
2022-12-28T18:52:13.402Z,83.00
2022-12-28T18:54:43.012Z,83.00
2022-12-28T18:57:12.810Z,83.00
2022-12-28T18:59:42.373Z,83.00
2022-12-28T19:02:19.319Z,83.30
2022-12-28T19:04:49.651Z,83.40
2022-12-28T19:07:19.247Z,83.60
2022-12-28T19:10:12.672Z,83.40
2022-12-28T19:12:44.095Z,83.40
2022-12-28T19:15:14.158Z,83.40
2022-12-28T19:17:43.674Z,83.30
2022-12-28T19:20:13.538Z,83.50
2022-12-28T19:22:43.029Z,83.60
2022-12-28T19:25:13.212Z,83.50
2022-12-28T19:27:42.837Z,83.60
2022-12-28T19:30:12.939Z,83.60
2022-12-28T19:32:42.784Z,83.70
2022-12-28T19:35:12.825Z,83.70
2022-12-28T19:37:42.415Z,83.70
2022-12-28T19:40:12.276Z,83.80
2022-12-28T19:42:41.879Z,83.90
2022-12-28T19:45:11.947Z,83.80
2022-12-28T19:47:41.661Z,83.80
2022-12-28T19:50:11.470Z,83.90
2022-12-28T19:52:41.061Z,83.90
2022-12-28T19:55:11.025Z,83.70
2022-12-28T19:57:40.880Z,83.80
2022-12-28T20:00:11.236Z,83.80
2022-12-28T20:02:41.077Z,83.70
2022-12-28T20:05:11.283Z,83.80
2022-12-28T20:07:41.519Z,83.90
2022-12-28T20:10:11.443Z,84.10
2022-12-28T20:12:41.111Z,84.10
2022-12-28T20:15:11.301Z,84.00
2022-12-28T20:17:41.003Z,84.00
2022-12-28T20:20:10.898Z,84.20
2022-12-28T20:22:43.118Z,84.30
2022-12-28T20:25:12.835Z,84.20
2022-12-28T20:27:42.994Z,84.50
2022-12-28T20:30:13.027Z,84.60
2022-12-28T20:32:44.864Z,84.50
2022-12-28T20:35:15.394Z,84.20
2022-12-28T20:37:45.044Z,84.30
2022-12-28T20:40:14.790Z,84.20
2022-12-28T20:43:03.984Z,84.50
2022-12-28T20:45:36.921Z,84.50
2022-12-28T20:48:06.734Z,84.40
2022-12-28T20:50:36.264Z,84.40
2022-12-28T20:53:05.918Z,84.50
2022-12-28T20:55:35.651Z,84.50
2022-12-28T20:58:05.285Z,84.50
2022-12-28T21:00:34.885Z,84.50
2022-12-28T21:03:05.509Z,84.70
2022-12-28T21:05:35.297Z,84.70
2022-12-28T21:08:05.169Z,85.50
2022-12-28T21:10:34.857Z,84.70
2022-12-28T21:13:04.454Z,84.70
2022-12-28T21:15:33.962Z,84.80
2022-12-28T21:18:04.437Z,84.80
2022-12-28T21:20:38.783Z,84.80
2022-12-28T21:23:08.768Z,84.90
2022-12-28T21:25:38.472Z,85.10
2022-12-28T21:28:08.770Z,85.00
2022-12-28T21:30:38.383Z,85.70
2022-12-28T21:33:08.511Z,85.00
2022-12-28T21:35:38.082Z,85.00
2022-12-28T21:38:08.196Z,85.20
2022-12-28T21:40:37.862Z,85.90
2022-12-28T21:43:07.435Z,85.20
2022-12-28T21:45:37.157Z,85.30
2022-12-28T21:48:06.968Z,85.40
2022-12-28T21:50:36.652Z,85.40
2022-12-28T21:53:06.358Z,85.30
2022-12-28T21:55:46.701Z,85.50
2022-12-28T21:58:16.391Z,85.40
2022-12-28T22:01:05.699Z,85.30
2022-12-28T22:03:55.293Z,85.40
2022-12-28T22:06:24.957Z,85.30
2022-12-28T22:09:14.029Z,85.20
2022-12-28T22:12:03.298Z,85.40
2022-12-28T22:14:32.897Z,85.50
2022-12-28T22:17:02.654Z,85.70
2022-12-28T22:19:32.524Z,85.60
2022-12-28T22:22:02.159Z,85.50
2022-12-28T22:24:31.736Z,85.60
2022-12-28T22:27:01.417Z,85.70
2022-12-28T22:29:31.683Z,85.90
2022-12-28T22:32:01.318Z,85.90
2022-12-28T22:34:32.716Z,85.90
2022-12-28T22:37:02.605Z,86.00
2022-12-28T22:39:32.196Z,86.00
2022-12-28T22:42:01.916Z,86.00
2022-12-28T22:44:31.517Z,86.10
2022-12-28T22:47:01.024Z,86.00
2022-12-28T22:49:30.891Z,86.20
2022-12-28T22:52:00.507Z,86.10
2022-12-28T22:54:30.047Z,86.10
2022-12-28T22:56:59.621Z,86.20
2022-12-28T22:59:29.240Z,86.30
2022-12-28T23:01:59.005Z,86.40
2022-12-28T23:04:28.861Z,86.40
2022-12-28T23:07:03.335Z,86.40
2022-12-28T23:09:34.170Z,86.00
2022-12-28T23:12:03.768Z,85.80
2022-12-28T23:14:53.232Z,85.90
2022-12-28T23:17:22.879Z,85.80
2022-12-28T23:20:12.174Z,86.00
2022-12-28T23:23:01.318Z,86.20
2022-12-28T23:25:50.581Z,86.60
2022-12-28T23:28:20.284Z,86.80
2022-12-28T23:30:51.965Z,86.70
2022-12-28T23:33:22.188Z,86.60
2022-12-28T23:35:51.743Z,86.60
2022-12-28T23:38:21.641Z,86.50
2022-12-28T23:41:10.771Z,86.60
2022-12-28T23:43:40.406Z,86.50
2022-12-28T23:46:10.008Z,86.50
2022-12-28T23:48:39.564Z,86.50
2022-12-28T23:51:12.829Z,86.70
2022-12-28T23:53:42.358Z,87.00
2022-12-28T23:56:11.918Z,87.20
2022-12-28T23:58:41.537Z,87.20
